sensor_id;sensor_type;location;lat;lon;timestamp;pressure;altitude;pressure_sealevel;temperature;humidity
78459;BME280;67753;42.684;23.330;2023-05-14T00:00:33;95425.13;;;16.15;56.29
78459;BME280;67753;42.684;23.330;2023-05-14T00:02:34;95413.84;;;16.02;56.64
78459;BME280;67753;42.684;23.330;2023-05-14T00:04:38;95421.28;;;16.23;56.37
78459;BME280;67753;42.684;23.330;2023-05-14T00:06:40;95419.72;;;16.15;56.34
78459;BME280;67753;42.684;23.330;2023-05-14T00:08:42;95421.22;;;16.05;56.53
78459;BME280;67753;42.684;23.330;2023-05-14T00:10:43;95420.47;;;16.12;56.57
78459;BME280;67753;42.684;23.330;2023-05-14T00:12:45;95415.03;;;16.08;56.57
78459;BME280;67753;42.684;23.330;2023-05-14T00:14:47;95408.41;;;15.91;56.84
78459;BME280;67753;42.684;23.330;2023-05-14T00:16:49;95407.31;;;16.06;56.65
78459;BME280;67753;42.684;23.330;2023-05-14T00:18:52;95412.34;;;16.12;56.56
78459;BME280;67753;42.684;23.330;2023-05-14T00:20:55;95415.44;;;16.14;56.38
78459;BME280;67753;42.684;23.330;2023-05-14T00:22:58;95407.75;;;16.16;56.32
78459;BME280;67753;42.684;23.330;2023-05-14T00:24:59;95407.38;;;16.21;56.29
78459;BME280;67753;42.684;23.330;2023-05-14T00:27:01;95401.16;;;16.09;56.70
78459;BME280;67753;42.684;23.330;2023-05-14T00:29:03;95391.84;;;16.03;56.63
78459;BME280;67753;42.684;23.330;2023-05-14T00:31:05;95387.28;;;16.15;56.34
78459;BME280;67753;42.684;23.330;2023-05-14T00:33:07;95394.22;;;16.16;56.38
78459;BME280;67753;42.684;23.330;2023-05-14T00:35:09;95396.13;;;16.12;56.19
78459;BME280;67753;42.684;23.330;2023-05-14T00:37:13;95384.16;;;16.05;56.35
78459;BME280;67753;42.684;23.330;2023-05-14T00:39:14;95388.78;;;16.08;56.44
78459;BME280;67753;42.684;23.330;2023-05-14T00:41:16;95394.47;;;15.86;56.91
78459;BME280;67753;42.684;23.330;2023-05-14T00:43:18;95379.41;;;15.88;56.91
78459;BME280;67753;42.684;23.330;2023-05-14T00:45:21;95384.81;;;15.88;57.00
78459;BME280;67753;42.684;23.330;2023-05-14T00:47:23;95381.38;;;15.95;56.73
78459;BME280;67753;42.684;23.330;2023-05-14T00:49:25;95384.06;;;15.91;56.86
78459;BME280;67753;42.684;23.330;2023-05-14T00:51:28;95378.97;;;15.79;57.10
78459;BME280;67753;42.684;23.330;2023-05-14T00:53:32;95379.38;;;15.84;56.95
78459;BME280;67753;42.684;23.330;2023-05-14T00:55:35;95381.72;;;15.82;56.70
78459;BME280;67753;42.684;23.330;2023-05-14T00:57:38;95369.28;;;15.71;57.23
78459;BME280;67753;42.684;23.330;2023-05-14T00:59:40;95379.72;;;15.76;57.09
78459;BME280;67753;42.684;23.330;2023-05-14T01:01:42;95373.91;;;15.70;57.25
78459;BME280;67753;42.684;23.330;2023-05-14T01:03:44;95373.16;;;15.73;57.09
78459;BME280;67753;42.684;23.330;2023-05-14T01:05:54;95370.06;;;15.75;57.07
78459;BME280;67753;42.684;23.330;2023-05-14T01:08:03;95368.91;;;15.72;57.31
78459;BME280;67753;42.684;23.330;2023-05-14T01:10:13;95372.72;;;15.64;57.61
78459;BME280;67753;42.684;23.330;2023-05-14T01:12:26;95380.09;;;15.71;57.35
78459;BME280;67753;42.684;23.330;2023-05-14T01:14:35;95371.63;;;15.72;57.58
78459;BME280;67753;42.684;23.330;2023-05-14T01:16:41;95371.63;;;15.76;57.39
78459;BME280;67753;42.684;23.330;2023-05-14T01:18:45;95367.75;;;15.70;57.68
78459;BME280;67753;42.684;23.330;2023-05-14T01:20:49;95364.69;;;15.78;57.25
78459;BME280;67753;42.684;23.330;2023-05-14T01:22:53;95376.34;;;15.86;56.71
78459;BME280;67753;42.684;23.330;2023-05-14T01:24:55;95378.84;;;15.57;57.13
78459;BME280;67753;42.684;23.330;2023-05-14T01:27:00;95379.94;;;15.49;57.20
78459;BME280;67753;42.684;23.330;2023-05-14T01:29:10;95390.06;;;15.63;56.76
78459;BME280;67753;42.684;23.330;2023-05-14T01:31:17;95398.53;;;15.62;56.91
78459;BME280;67753;42.684;23.330;2023-05-14T01:33:26;95399.34;;;15.66;56.59
78459;BME280;67753;42.684;23.330;2023-05-14T01:35:30;95397.84;;;15.68;56.31
78459;BME280;67753;42.684;23.330;2023-05-14T01:37:34;95399.00;;;15.71;56.52
78459;BME280;67753;42.684;23.330;2023-05-14T01:39:38;95389.97;;;15.52;56.75
78459;BME280;67753;42.684;23.330;2023-05-14T01:41:42;95399.34;;;15.66;56.69
78459;BME280;67753;42.684;23.330;2023-05-14T01:43:45;95395.53;;;15.67;56.49
78459;BME280;67753;42.684;23.330;2023-05-14T01:45:48;95396.31;;;15.67;56.43
78459;BME280;67753;42.684;23.330;2023-05-14T01:47:52;95396.34;;;15.78;56.28
78459;BME280;67753;42.684;23.330;2023-05-14T01:49:54;95386.25;;;15.68;56.42
78459;BME280;67753;42.684;23.330;2023-05-14T01:51:56;95390.94;;;15.78;56.31
78459;BME280;67753;42.684;23.330;2023-05-14T01:53:57;95382.44;;;15.72;56.21
78459;BME280;67753;42.684;23.330;2023-05-14T01:56:00;95386.25;;;15.68;56.52
78459;BME280;67753;42.684;23.330;2023-05-14T01:58:03;95404.03;;;15.76;56.31
78459;BME280;67753;42.684;23.330;2023-05-14T02:00:06;95397.50;;;15.77;56.29
78459;BME280;67753;42.684;23.330;2023-05-14T02:02:08;95400.97;;;15.74;56.70
78459;BME280;67753;42.684;23.330;2023-05-14T02:04:13;95398.53;;;15.62;57.34
78459;BME280;67753;42.684;23.330;2023-05-14T02:06:14;95396.28;;;15.71;57.57
78459;BME280;67753;42.684;23.330;2023-05-14T02:08:16;95394.38;;;15.68;58.01
78459;BME280;67753;42.684;23.330;2023-05-14T02:10:18;95398.81;;;15.46;58.90
78459;BME280;67753;42.684;23.330;2023-05-14T02:12:22;95401.56;;;15.49;58.85
78459;BME280;67753;42.684;23.330;2023-05-14T02:14:25;95392.25;;;15.43;59.27
78459;BME280;67753;42.684;23.330;2023-05-14T02:16:28;95383.03;;;15.51;59.25
78459;BME280;67753;42.684;23.330;2023-05-14T02:18:30;95389.59;;;15.50;59.46
78459;BME280;67753;42.684;23.330;2023-05-14T02:20:31;95392.19;;;15.36;60.01
78459;BME280;67753;42.684;23.330;2023-05-14T02:22:33;95402.88;;;15.22;60.84
78459;BME280;67753;42.684;23.330;2023-05-14T02:24:36;95401.84;;;15.37;60.71
78459;BME280;67753;42.684;23.330;2023-05-14T02:26:40;95409.13;;;15.33;60.92
78459;BME280;67753;42.684;23.330;2023-05-14T02:28:44;95412.22;;;15.31;61.35
78459;BME280;67753;42.684;23.330;2023-05-14T02:30:46;95411.84;;;15.33;62.03
78459;BME280;67753;42.684;23.330;2023-05-14T02:32:49;95409.84;;;15.26;62.66
78459;BME280;67753;42.684;23.330;2023-05-14T02:34:51;95403.63;;;15.19;63.35
78459;BME280;67753;42.684;23.330;2023-05-14T02:36:52;95412.97;;;15.32;63.24
78459;BME280;67753;42.684;23.330;2023-05-14T02:38:54;95419.09;;;15.22;63.37
78459;BME280;67753;42.684;23.330;2023-05-14T02:40:56;95417.06;;;15.12;63.76
78459;BME280;67753;42.684;23.330;2023-05-14T02:42:58;95419.00;;;15.15;64.18
78459;BME280;67753;42.684;23.330;2023-05-14T02:45:01;95425.34;;;15.33;63.84
78459;BME280;67753;42.684;23.330;2023-05-14T02:47:03;95426.03;;;15.23;63.80
78459;BME280;67753;42.684;23.330;2023-05-14T02:49:05;95427.28;;;15.36;63.39
78459;BME280;67753;42.684;23.330;2023-05-14T02:51:07;95420.28;;;15.28;63.31
78459;BME280;67753;42.684;23.330;2023-05-14T02:53:09;95421.31;;;15.13;63.71
78459;BME280;67753;42.684;23.330;2023-05-14T02:55:11;95427.19;;;15.22;63.52
78459;BME280;67753;42.684;23.330;2023-05-14T02:57:13;95425.66;;;15.24;63.41
78459;BME280;67753;42.684;23.330;2023-05-14T02:59:15;95419.13;;;14.85;64.11
78459;BME280;67753;42.684;23.330;2023-05-14T03:01:18;95421.91;;;14.95;63.12
78459;BME280;67753;42.684;23.330;2023-05-14T03:03:20;95425.44;;;14.99;62.68
78459;BME280;67753;42.684;23.330;2023-05-14T03:05:22;95425.88;;;15.05;61.81
78459;BME280;67753;42.684;23.330;2023-05-14T03:07:23;95428.94;;;15.03;61.11
78459;BME280;67753;42.684;23.330;2023-05-14T03:09:25;95428.88;;;14.96;61.41
78459;BME280;67753;42.684;23.330;2023-05-14T03:11:27;95430.56;;;15.12;61.38
78459;BME280;67753;42.684;23.330;2023-05-14T03:13:29;95418.00;;;14.89;61.71
78459;BME280;67753;42.684;23.330;2023-05-14T03:15:31;95412.03;;;15.10;61.11
78459;BME280;67753;42.684;23.330;2023-05-14T03:17:34;95398.94;;;15.12;60.38
78459;BME280;67753;42.684;23.330;2023-05-14T03:19:36;95398.97;;;15.16;60.25
78459;BME280;67753;42.684;23.330;2023-05-14T03:21:38;95389.69;;;15.13;60.16
78459;BME280;67753;42.684;23.330;2023-05-14T03:23:40;95411.31;;;15.17;60.01
78459;BME280;67753;42.684;23.330;2023-05-14T03:25:42;95409.00;;;15.19;60.11
78459;BME280;67753;42.684;23.330;2023-05-14T03:27:44;95406.78;;;15.28;60.00
78459;BME280;67753;42.684;23.330;2023-05-14T03:29:46;95405.06;;;15.09;60.84
78459;BME280;67753;42.684;23.330;2023-05-14T03:31:47;95405.94;;;15.17;60.68
78459;BME280;67753;42.684;23.330;2023-05-14T03:33:53;95410.63;;;15.27;61.03
78459;BME280;67753;42.684;23.330;2023-05-14T03:35:55;95416.03;;;15.27;61.78
78459;BME280;67753;42.684;23.330;2023-05-14T03:37:59;95421.38;;;14.79;64.04
78459;BME280;67753;42.684;23.330;2023-05-14T03:40:01;95432.66;;;14.88;64.92
78459;BME280;67753;42.684;23.330;2023-05-14T03:42:03;95423.44;;;14.93;65.07
78459;BME280;67753;42.684;23.330;2023-05-14T03:44:06;95418.97;;;15.07;64.82
78459;BME280;67753;42.684;23.330;2023-05-14T03:46:08;95419.00;;;15.11;64.40
78459;BME280;67753;42.684;23.330;2023-05-14T03:48:10;95422.38;;;15.04;65.41
78459;BME280;67753;42.684;23.330;2023-05-14T03:50:14;95425.28;;;14.85;65.05
78459;BME280;67753;42.684;23.330;2023-05-14T03:52:15;95417.34;;;14.99;65.05
78459;BME280;67753;42.684;23.330;2023-05-14T03:54:17;95410.75;;;14.56;66.22
78459;BME280;67753;42.684;23.330;2023-05-14T03:56:19;95411.75;;;14.81;65.10
78459;BME280;67753;42.684;23.330;2023-05-14T03:58:22;95414.47;;;14.81;64.35
78459;BME280;67753;42.684;23.330;2023-05-14T04:00:24;95416.28;;;14.70;65.33
78459;BME280;67753;42.684;23.330;2023-05-14T04:02:26;95416.13;;;14.93;64.47
78459;BME280;67753;42.684;23.330;2023-05-14T04:04:28;95414.25;;;14.97;64.22
78459;BME280;67753;42.684;23.330;2023-05-14T04:06:31;95413.44;;;14.93;64.05
78459;BME280;67753;42.684;23.330;2023-05-14T04:08:33;95423.50;;;14.96;64.35
78459;BME280;67753;42.684;23.330;2023-05-14T04:10:35;95424.28;;;15.00;65.29
78459;BME280;67753;42.684;23.330;2023-05-14T04:12:37;95424.41;;;15.11;63.70
78459;BME280;67753;42.684;23.330;2023-05-14T04:14:39;95422.47;;;15.12;63.96
78459;BME280;67753;42.684;23.330;2023-05-14T04:16:41;95424.50;;;15.25;63.10
78459;BME280;67753;42.684;23.330;2023-05-14T04:18:43;95426.78;;;15.23;62.56
78459;BME280;67753;42.684;23.330;2023-05-14T04:20:45;95440.00;;;15.32;62.41
78459;BME280;67753;42.684;23.330;2023-05-14T04:22:48;95436.00;;;15.19;62.57
78459;BME280;67753;42.684;23.330;2023-05-14T04:24:50;95440.59;;;15.15;62.77
78459;BME280;67753;42.684;23.330;2023-05-14T04:26:52;95438.78;;;15.26;62.26
78459;BME280;67753;42.684;23.330;2023-05-14T04:28:54;95439.94;;;15.28;62.41
78459;BME280;67753;42.684;23.330;2023-05-14T04:30:56;95442.34;;;15.37;61.85
78459;BME280;67753;42.684;23.330;2023-05-14T04:32:58;95451.53;;;15.29;61.76
78459;BME280;67753;42.684;23.330;2023-05-14T04:34:59;95447.16;;;15.14;61.86
78459;BME280;67753;42.684;23.330;2023-05-14T04:37:01;95449.97;;;15.24;61.85
78459;BME280;67753;42.684;23.330;2023-05-14T04:39:04;95445.38;;;15.32;61.42
78459;BME280;67753;42.684;23.330;2023-05-14T04:41:08;95461.53;;;15.25;61.44
78459;BME280;67753;42.684;23.330;2023-05-14T04:43:10;95452.91;;;15.08;62.91
78459;BME280;67753;42.684;23.330;2023-05-14T04:45:11;95461.59;;;15.32;62.99
78459;BME280;67753;42.684;23.330;2023-05-14T04:47:14;95464.78;;;15.45;62.25
78459;BME280;67753;42.684;23.330;2023-05-14T04:49:16;95474.72;;;15.33;61.92
78459;BME280;67753;42.684;23.330;2023-05-14T04:51:17;95475.59;;;15.45;62.21
78459;BME280;67753;42.684;23.330;2023-05-14T04:53:19;95474.69;;;15.30;63.26
78459;BME280;67753;42.684;23.330;2023-05-14T04:55:24;95476.63;;;15.29;63.78
78459;BME280;67753;42.684;23.330;2023-05-14T04:57:26;95483.19;;;15.32;63.51
78459;BME280;67753;42.684;23.330;2023-05-14T04:59:28;95488.94;;;15.27;64.13
78459;BME280;67753;42.684;23.330;2023-05-14T05:01:30;95489.88;;;15.04;65.24
78459;BME280;67753;42.684;23.330;2023-05-14T05:03:32;95496.22;;;15.23;65.11
78459;BME280;67753;42.684;23.330;2023-05-14T05:05:34;95498.44;;;15.14;65.97
78459;BME280;67753;42.684;23.330;2023-05-14T05:07:36;95505.56;;;14.95;67.06
78459;BME280;67753;42.684;23.330;2023-05-14T05:09:38;95505.72;;;15.09;66.98
78459;BME280;67753;42.684;23.330;2023-05-14T05:11:41;95511.13;;;15.06;67.59
78459;BME280;67753;42.684;23.330;2023-05-14T05:13:43;95519.91;;;14.99;68.17
78459;BME280;67753;42.684;23.330;2023-05-14T05:15:47;95526.06;;;15.00;68.34
78459;BME280;67753;42.684;23.330;2023-05-14T05:17:49;95518.91;;;14.81;69.30
78459;BME280;67753;42.684;23.330;2023-05-14T05:19:51;95525.56;;;14.91;70.13
78459;BME280;67753;42.684;23.330;2023-05-14T05:21:53;95529.19;;;15.05;69.80
78459;BME280;67753;42.684;23.330;2023-05-14T05:23:54;95529.22;;;14.72;76.43
78459;BME280;67753;42.684;23.330;2023-05-14T05:25:57;95529.03;;;14.91;73.49
78459;BME280;67753;42.684;23.330;2023-05-14T05:28:00;95536.03;;;14.92;75.40
78459;BME280;67753;42.684;23.330;2023-05-14T05:30:03;95526.03;;;14.96;75.14
78459;BME280;67753;42.684;23.330;2023-05-14T05:32:06;95528.69;;;14.93;75.36
78459;BME280;67753;42.684;23.330;2023-05-14T05:34:08;95530.94;;;14.87;77.54
78459;BME280;67753;42.684;23.330;2023-05-14T05:36:10;95521.28;;;14.86;77.79
78459;BME280;67753;42.684;23.330;2023-05-14T05:38:12;95535.59;;;14.90;79.02
78459;BME280;67753;42.684;23.330;2023-05-14T05:40:15;95536.09;;;14.66;81.93
78459;BME280;67753;42.684;23.330;2023-05-14T05:42:17;95531.50;;;14.40;83.98
78459;BME280;67753;42.684;23.330;2023-05-14T05:44:20;95530.28;;;14.37;86.74
78459;BME280;67753;42.684;23.330;2023-05-14T05:46:22;95530.28;;;14.37;89.05
78459;BME280;67753;42.684;23.330;2023-05-14T05:48:23;95519.19;;;14.16;95.53
78459;BME280;67753;42.684;23.330;2023-05-14T05:50:25;95520.28;;;14.11;96.38
78459;BME280;67753;42.684;23.330;2023-05-14T05:52:28;95524.03;;;14.03;95.80
78459;BME280;67753;42.684;23.330;2023-05-14T05:54:30;95530.91;;;14.00;94.12
78459;BME280;67753;42.684;23.330;2023-05-14T05:56:33;95517.59;;;13.85;95.93
78459;BME280;67753;42.684;23.330;2023-05-14T05:58:34;95515.44;;;13.94;100.00
78459;BME280;67753;42.684;23.330;2023-05-14T06:00:38;95510.81;;;13.94;96.23
78459;BME280;67753;42.684;23.330;2023-05-14T06:02:39;95509.00;;;13.75;96.91
78459;BME280;67753;42.684;23.330;2023-05-14T06:04:41;95505.78;;;13.66;99.66
78459;BME280;67753;42.684;23.330;2023-05-14T06:06:43;95504.84;;;13.55;99.56
78459;BME280;67753;42.684;23.330;2023-05-14T06:08:45;95511.94;;;13.67;100.00
78459;BME280;67753;42.684;23.330;2023-05-14T06:10:47;95510.38;;;13.66;100.00
78459;BME280;67753;42.684;23.330;2023-05-14T06:12:48;95522.94;;;13.81;100.00
78459;BME280;67753;42.684;23.330;2023-05-14T06:14:50;95513.06;;;13.89;100.00
78459;BME280;67753;42.684;23.330;2023-05-14T06:16:56;95516.72;;;13.77;100.00
78459;BME280;67753;42.684;23.330;2023-05-14T06:18:58;95525.16;;;13.75;99.51
78459;BME280;67753;42.684;23.330;2023-05-14T06:21:00;95520.94;;;13.78;99.49
78459;BME280;67753;42.684;23.330;2023-05-14T06:23:02;95517.44;;;13.74;100.00
78459;BME280;67753;42.684;23.330;2023-05-14T06:25:04;95507.50;;;13.78;100.00
78459;BME280;67753;42.684;23.330;2023-05-14T06:27:06;95511.94;;;13.67;100.00
78459;BME280;67753;42.684;23.330;2023-05-14T06:29:08;95514.81;;;13.54;100.00
78459;BME280;67753;42.684;23.330;2023-05-14T06:31:10;95513.09;;;13.66;99.13
78459;BME280;67753;42.684;23.330;2023-05-14T06:33:14;95514.31;;;13.72;100.00
78459;BME280;67753;42.684;23.330;2023-05-14T06:35:16;95516.63;;;13.70;100.00
78459;BME280;67753;42.684;23.330;2023-05-14T06:37:18;95525.00;;;13.65;100.00
78459;BME280;67753;42.684;23.330;2023-05-14T06:39:21;95524.19;;;13.64;100.00
78459;BME280;67753;42.684;23.330;2023-05-14T06:41:23;95523.56;;;13.71;100.00
78459;BME280;67753;42.684;23.330;2023-05-14T06:43:25;95514.22;;;13.65;100.00
78459;BME280;67753;42.684;23.330;2023-05-14T06:45:29;95503.94;;;13.47;100.00
78459;BME280;67753;42.684;23.330;2023-05-14T06:47:31;95509.13;;;13.60;100.00
78459;BME280;67753;42.684;23.330;2023-05-14T06:49:34;95512.34;;;13.69;100.00
78459;BME280;67753;42.684;23.330;2023-05-14T06:51:36;95506.56;;;13.67;100.00
78459;BME280;67753;42.684;23.330;2023-05-14T06:53:40;95502.53;;;13.80;100.00
78459;BME280;67753;42.684;23.330;2023-05-14T06:55:41;95483.47;;;13.66;100.00
78459;BME280;67753;42.684;23.330;2023-05-14T06:57:44;95482.84;;;13.76;100.00
78459;BME280;67753;42.684;23.330;2023-05-14T06:59:46;95485.34;;;13.88;100.00
78459;BME280;67753;42.684;23.330;2023-05-14T07:01:48;95496.31;;;14.02;100.00
78459;BME280;67753;42.684;23.330;2023-05-14T07:03:50;95487.69;;;14.20;100.00
78459;BME280;67753;42.684;23.330;2023-05-14T07:05:53;95501.41;;;14.38;100.00
78459;BME280;67753;42.684;23.330;2023-05-14T07:07:56;95500.97;;;14.62;100.00
78459;BME280;67753;42.684;23.330;2023-05-14T07:09:58;95506.72;;;14.61;100.00
78459;BME280;67753;42.684;23.330;2023-05-14T07:11:59;95506.47;;;14.69;100.00
78459;BME280;67753;42.684;23.330;2023-05-14T07:14:01;95505.50;;;14.54;100.00
78459;BME280;67753;42.684;23.330;2023-05-14T07:16:03;95515.47;;;14.50;100.00
78459;BME280;67753;42.684;23.330;2023-05-14T07:18:06;95533.16;;;14.48;100.00
78459;BME280;67753;42.684;23.330;2023-05-14T07:20:08;95537.53;;;14.06;100.00
78459;BME280;67753;42.684;23.330;2023-05-14T07:22:12;95551.34;;;14.28;100.00
78459;BME280;67753;42.684;23.330;2023-05-14T07:24:14;95548.97;;;14.23;100.00
78459;BME280;67753;42.684;23.330;2023-05-14T07:26:15;95533.00;;;14.11;100.00
78459;BME280;67753;42.684;23.330;2023-05-14T07:28:17;95524.28;;;13.94;100.00
78459;BME280;67753;42.684;23.330;2023-05-14T07:30:19;95521.59;;;13.94;100.00
78459;BME280;67753;42.684;23.330;2023-05-14T07:32:21;95512.38;;;13.95;100.00
78459;BME280;67753;42.684;23.330;2023-05-14T07:34:24;95522.31;;;13.91;100.00
78459;BME280;67753;42.684;23.330;2023-05-14T07:36:26;95511.53;;;13.91;100.00
78459;BME280;67753;42.684;23.330;2023-05-14T07:38:30;95524.03;;;14.03;100.00
78459;BME280;67753;42.684;23.330;2023-05-14T07:40:32;95519.63;;;13.91;100.00
78459;BME280;67753;42.684;23.330;2023-05-14T07:42:34;95527.91;;;14.05;100.00
78459;BME280;67753;42.684;23.330;2023-05-14T07:44:36;95527.81;;;13.98;100.00
78459;BME280;67753;42.684;23.330;2023-05-14T07:46:37;95536.47;;;14.11;100.00
78459;BME280;67753;42.684;23.330;2023-05-14T07:48:40;95519.19;;;14.16;100.00
78459;BME280;67753;42.684;23.330;2023-05-14T07:50:42;95525.03;;;14.18;100.00
78459;BME280;67753;42.684;23.330;2023-05-14T07:52:44;95526.72;;;14.29;100.00
78459;BME280;67753;42.684;23.330;2023-05-14T07:54:48;95530.28;;;14.11;100.00
78459;BME280;67753;42.684;23.330;2023-05-14T07:56:50;95533.41;;;14.13;100.00
78459;BME280;67753;42.684;23.330;2023-05-14T07:58:52;95540.31;;;14.10;100.00
78459;BME280;67753;42.684;23.330;2023-05-14T08:00:54;95538.91;;;14.20;100.00
78459;BME280;67753;42.684;23.330;2023-05-14T08:02:57;95538.38;;;14.37;100.00
78459;BME280;67753;42.684;23.330;2023-05-14T08:04:59;95546.03;;;14.62;100.00
78459;BME280;67753;42.684;23.330;2023-05-14T08:07:00;95551.81;;;14.60;100.00
78459;BME280;67753;42.684;23.330;2023-05-14T08:09:02;95543.34;;;14.62;100.00
78459;BME280;67753;42.684;23.330;2023-05-14T08:11:06;95545.69;;;14.37;100.00
78459;BME280;67753;42.684;23.330;2023-05-14T08:13:08;95539.22;;;14.41;100.00
78459;BME280;67753;42.684;23.330;2023-05-14T08:15:11;95546.88;;;14.66;100.00
78459;BME280;67753;42.684;23.330;2023-05-14T08:17:13;95538.78;;;14.66;100.00
78459;BME280;67753;42.684;23.330;2023-05-14T08:19:14;95533.59;;;14.83;100.00
78459;BME280;67753;42.684;23.330;2023-05-14T08:21:16;95525.94;;;14.89;100.00
78459;BME280;67753;42.684;23.330;2023-05-14T08:23:19;95514.34;;;14.85;100.00
78459;BME280;67753;42.684;23.330;2023-05-14T08:25:21;95521.78;;;14.95;100.00
78459;BME280;67753;42.684;23.330;2023-05-14T08:27:26;95525.28;;;14.99;100.00
78459;BME280;67753;42.684;23.330;2023-05-14T08:29:29;95514.59;;;14.73;100.00
78459;BME280;67753;42.684;23.330;2023-05-14T08:31:30;95513.00;;;15.05;100.00
78459;BME280;67753;42.684;23.330;2023-05-14T08:33:32;95522.91;;;14.94;100.00
78459;BME280;67753;42.684;23.330;2023-05-14T08:35:34;95528.41;;;15.01;100.00
78459;BME280;67753;42.684;23.330;2023-05-14T08:37:35;95521.59;;;15.15;100.00
78459;BME280;67753;42.684;23.330;2023-05-14T08:39:37;95515.31;;;15.03;100.00
78459;BME280;67753;42.684;23.330;2023-05-14T08:41:39;95514.25;;;15.12;100.00
78459;BME280;67753;42.684;23.330;2023-05-14T08:43:46;95507.94;;;15.38;99.19
78459;BME280;67753;42.684;23.330;2023-05-14T08:45:53;95503.72;;;15.40;99.23
78459;BME280;67753;42.684;23.330;2023-05-14T08:47:56;95495.63;;;15.40;96.83
78459;BME280;67753;42.684;23.330;2023-05-14T08:50:01;95491.28;;;15.32;98.96
78459;BME280;67753;42.684;23.330;2023-05-14T08:52:04;95511.91;;;15.10;99.45
78459;BME280;67753;42.684;23.330;2023-05-14T08:54:06;95511.31;;;14.90;100.00
78459;BME280;67753;42.684;23.330;2023-05-14T08:56:09;95504.38;;;14.89;100.00
78459;BME280;67753;42.684;23.330;2023-05-14T08:58:12;95492.06;;;14.92;100.00
78459;BME280;67753;42.684;23.330;2023-05-14T09:00:15;95498.81;;;14.75;100.00
78459;BME280;67753;42.684;23.330;2023-05-14T09:02:20;95506.81;;;15.01;99.50
78459;BME280;67753;42.684;23.330;2023-05-14T09:04:23;95507.41;;;14.84;98.05
78459;BME280;67753;42.684;23.330;2023-05-14T09:06:27;95507.84;;;15.27;96.36
78459;BME280;67753;42.684;23.330;2023-05-14T09:08:32;95512.47;;;15.26;94.45
78459;BME280;67753;42.684;23.330;2023-05-14T09:10:35;95513.50;;;15.55;93.73
78459;BME280;67753;42.684;23.330;2023-05-14T09:12:37;95520.59;;;15.67;93.07
78459;BME280;67753;42.684;23.330;2023-05-14T09:14:40;95505.94;;;15.72;93.58
78459;BME280;67753;42.684;23.330;2023-05-14T09:16:45;95502.13;;;15.36;93.38
78459;BME280;67753;42.684;23.330;2023-05-14T09:18:47;95491.84;;;15.48;96.46
78459;BME280;67753;42.684;23.330;2023-05-14T09:20:49;95495.88;;;15.69;93.80
78459;BME280;67753;42.684;23.330;2023-05-14T09:22:52;95500.16;;;15.73;93.68
78459;BME280;67753;42.684;23.330;2023-05-14T09:25:04;95503.50;;;15.59;92.92
78459;BME280;67753;42.684;23.330;2023-05-14T09:27:08;95504.91;;;15.46;93.30
78459;BME280;67753;42.684;23.330;2023-05-14T09:29:10;95505.81;;;15.61;92.85
78459;BME280;67753;42.684;23.330;2023-05-14T09:31:12;95491.03;;;15.44;93.54
78459;BME280;67753;42.684;23.330;2023-05-14T09:33:24;95483.66;;;15.41;94.34
78459;BME280;67753;42.684;23.330;2023-05-14T09:35:27;95489.78;;;15.38;93.95
78459;BME280;67753;42.684;23.330;2023-05-14T09:37:29;95500.13;;;15.25;95.40
78459;BME280;67753;42.684;23.330;2023-05-14T09:39:32;95494.94;;;15.50;95.68
78459;BME280;67753;42.684;23.330;2023-05-14T09:41:35;95485.06;;;15.28;95.86
78459;BME280;67753;42.684;23.330;2023-05-14T09:43:38;95473.78;;;15.59;92.46
78459;BME280;67753;42.684;23.330;2023-05-14T09:45:40;95469.22;;;15.64;91.98
78459;BME280;67753;42.684;23.330;2023-05-14T09:47:42;95478.78;;;15.57;91.91
78459;BME280;67753;42.684;23.330;2023-05-14T09:49:48;95476.06;;;15.13;93.68
78459;BME280;67753;42.684;23.330;2023-05-14T09:51:50;95475.50;;;15.34;94.38
78459;BME280;67753;42.684;23.330;2023-05-14T09:53:52;95474.75;;;15.37;94.35
78459;BME280;67753;42.684;23.330;2023-05-14T09:55:55;95480.31;;;15.55;93.12
78459;BME280;67753;42.684;23.330;2023-05-14T09:57:57;95463.91;;;15.30;94.51
78459;BME280;67753;42.684;23.330;2023-05-14T09:59:59;95469.25;;;15.26;94.49
78459;BME280;67753;42.684;23.330;2023-05-14T10:02:01;95472.13;;;15.03;95.53
78459;BME280;67753;42.684;23.330;2023-05-14T10:04:06;95474.09;;;15.06;95.76
78459;BME280;67753;42.684;23.330;2023-05-14T10:06:12;95462.19;;;15.15;94.09
78459;BME280;67753;42.684;23.330;2023-05-14T10:08:21;95446.81;;;15.19;94.13
78459;BME280;67753;42.684;23.330;2023-05-14T10:10:26;95442.03;;;15.01;94.19
78459;BME280;67753;42.684;23.330;2023-05-14T10:12:32;95438.56;;;15.01;96.18
78459;BME280;67753;42.684;23.330;2023-05-14T10:14:38;95440.50;;;15.04;96.88
78459;BME280;67753;42.684;23.330;2023-05-14T10:16:44;95436.69;;;15.08;97.18
78459;BME280;67753;42.684;23.330;2023-05-14T10:18:51;95427.75;;;14.97;97.72
78459;BME280;67753;42.684;23.330;2023-05-14T10:21:03;95431.59;;;14.96;97.46
78459;BME280;67753;42.684;23.330;2023-05-14T10:23:07;95424.91;;;14.83;100.00
78459;BME280;67753;42.684;23.330;2023-05-14T10:25:09;95422.41;;;14.64;100.00
78459;BME280;67753;42.684;23.330;2023-05-14T10:27:12;95417.19;;;14.48;100.00
78459;BME280;67753;42.684;23.330;2023-05-14T10:29:14;95435.53;;;14.69;100.00
78459;BME280;67753;42.684;23.330;2023-05-14T10:31:16;95441.59;;;14.59;100.00
78459;BME280;67753;42.684;23.330;2023-05-14T10:33:18;95447.78;;;14.59;100.00
78459;BME280;67753;42.684;23.330;2023-05-14T10:35:20;95437.66;;;14.52;100.00
78459;BME280;67753;42.684;23.330;2023-05-14T10:37:25;95438.47;;;14.56;100.00
78459;BME280;67753;42.684;23.330;2023-05-14T10:39:56;95419.03;;;14.44;100.00